Time;durP1;ratioP1;P1;durP2;ratioP2;P2;SDS_P1;SDS_P2;PMS_P1;PMS_P2;Temp;Humidity;BMP_temperature;BMP_pressure;BME280_temperature;BME280_humidity;BME280_pressure;Samples;Min_cycle;Max_cycle;Signal;HPM_P1;HPM_P2
2022/01/08 00:00:37;;;;;;;9.33;6.03;;;3.90;99.90;;;;;;2614125;47;20431;-78
2022/01/08 00:03:03;;;;;;;7.90;6.80;;;3.70;99.90;;;;;;2613173;54;20407;-79
2022/01/08 00:05:29;;;;;;;8.77;6.90;;;3.60;99.90;;;;;;2614939;54;20425;-78
2022/01/08 00:07:55;;;;;;;6.67;6.07;;;3.70;99.90;;;;;;2613884;47;20174;-78
2022/01/08 00:10:22;;;;;;;8.83;6.70;;;3.70;99.90;;;;;;2615288;39;21769;-80
2022/01/08 00:12:50;;;;;;;9.53;6.43;;;3.60;99.90;;;;;;2614641;47;20431;-78
2022/01/08 00:15:16;;;;;;;11.97;7.60;;;3.70;99.90;;;;;;2614429;47;21019;-78
2022/01/08 00:17:42;;;;;;;8.47;6.20;;;3.80;99.90;;;;;;2613641;51;20983;-79
2022/01/08 00:20:09;;;;;;;10.63;7.07;;;4.00;99.90;;;;;;2615098;47;20447;-77
2022/01/08 00:22:35;;;;;;;13.40;6.13;;;4.00;99.90;;;;;;2614101;39;20943;-79
2022/01/08 00:25:02;;;;;;;10.20;7.03;;;3.90;99.90;;;;;;2613591;54;20418;-79
2022/01/08 00:27:28;;;;;;;12.53;7.13;;;4.10;99.90;;;;;;2614510;54;20415;-79
2022/01/08 00:29:54;;;;;;;7.63;6.40;;;4.00;99.90;;;;;;2614546;51;20450;-78
2022/01/08 00:32:20;;;;;;;10.00;7.37;;;4.00;99.90;;;;;;2614435;54;20427;-79
2022/01/08 00:34:46;;;;;;;8.27;6.40;;;3.90;99.90;;;;;;2613452;47;20195;-78
2022/01/08 00:37:12;;;;;;;9.23;7.70;;;4.20;99.90;;;;;;2614138;47;20424;-78
2022/01/08 00:39:39;;;;;;;10.47;6.83;;;4.20;99.90;;;;;;2614391;54;20452;-79
2022/01/08 00:42:05;;;;;;;22.00;7.20;;;3.90;99.90;;;;;;2615366;54;20427;-78
2022/01/08 00:44:31;;;;;;;14.10;9.57;;;4.00;99.90;;;;;;2613346;47;20479;-78
2022/01/08 00:46:57;;;;;;;9.43;7.33;;;3.70;99.90;;;;;;2614555;54;20431;-79
2022/01/08 00:49:24;;;;;;;9.23;8.03;;;3.60;99.90;;;;;;2614965;54;20191;-79
2022/01/08 00:51:51;;;;;;;8.37;7.47;;;3.30;99.90;;;;;;2615013;54;20424;-78
2022/01/08 00:54:17;;;;;;;9.90;7.40;;;3.20;99.90;;;;;;2613610;54;20404;-78
2022/01/08 00:56:43;;;;;;;8.17;6.67;;;3.20;99.90;;;;;;2615132;54;20567;-79
2022/01/08 00:59:09;;;;;;;11.10;7.60;;;3.30;99.90;;;;;;2613059;46;20539;-77
2022/01/08 01:01:35;;;;;;;12.20;7.90;;;3.30;99.90;;;;;;2615083;54;20147;-77
2022/01/08 01:04:01;;;;;;;10.93;9.10;;;3.20;99.90;;;;;;2613363;54;20190;-78
2022/01/08 01:06:27;;;;;;;13.83;8.57;;;3.10;99.90;;;;;;2614722;54;20246;-78
2022/01/08 01:08:53;;;;;;;11.33;8.20;;;3.30;99.90;;;;;;2614665;54;20675;-79
2022/01/08 01:11:19;;;;;;;11.93;8.33;;;3.20;99.90;;;;;;2614556;54;20482;-79
2022/01/08 01:13:45;;;;;;;9.40;6.70;;;3.10;99.90;;;;;;2613278;54;20406;-79
2022/01/08 01:16:11;;;;;;;10.40;7.97;;;3.00;99.90;;;;;;2614378;39;20771;-78
2022/01/08 01:18:38;;;;;;;14.13;8.50;;;3.00;99.90;;;;;;2614355;39;20832;-79
2022/01/08 01:21:04;;;;;;;11.20;7.27;;;2.90;99.90;;;;;;2615313;54;20527;-78
2022/01/08 01:23:36;;;;;;;11.90;9.07;;;2.70;99.90;;;;;;2612907;54;20414;-78
2022/01/08 01:26:05;;;;;;;11.87;9.00;;;2.80;99.90;;;;;;2614321;47;20395;-78
2022/01/08 01:47:05;;;;;;;12.70;10.73;;;2.40;99.90;;;;;;2615727;54;20434;-78
2022/01/08 01:49:36;;;;;;;11.53;9.40;;;2.40;99.90;;;;;;2614820;39;21215;-78
2022/01/08 01:52:04;;;;;;;11.60;9.30;;;2.30;99.90;;;;;;2614768;54;20387;-78
2022/01/08 01:54:32;;;;;;;11.90;8.93;;;2.30;99.90;;;;;;2614403;39;20664;-80
2022/01/08 01:57:00;;;;;;;11.97;9.77;;;2.30;99.90;;;;;;2612808;39;21142;-78
2022/01/08 01:59:28;;;;;;;11.70;10.50;;;2.30;99.90;;;;;;2613672;47;20435;-78
2022/01/08 02:01:56;;;;;;;14.57;10.20;;;2.20;99.90;;;;;;2614186;47;20419;-78
2022/01/08 02:04:22;;;;;;;13.93;9.70;;;2.30;99.90;;;;;;2615101;54;20431;-78
2022/01/08 02:06:48;;;;;;;11.87;10.20;;;2.30;99.90;;;;;;2613427;46;20410;-77
2022/01/08 02:09:14;;;;;;;13.70;11.23;;;2.40;99.90;;;;;;2613972;47;20438;-75
2022/01/08 02:12:06;;;;;;;14.70;10.20;;;2.40;99.90;;;;;;2614862;54;20404;-76
2022/01/08 02:14:35;;;;;;;13.70;10.50;;;2.20;99.90;;;;;;2614752;39;21120;-78
2022/01/08 02:17:03;;;;;;;20.63;10.87;;;2.30;99.90;;;;;;2614014;39;20906;-78
2022/01/08 02:19:29;;;;;;;14.33;11.60;;;2.20;99.90;;;;;;2614227;47;20428;-79
2022/01/08 02:21:58;;;;;;;15.40;12.07;;;2.10;99.90;;;;;;2615130;39;20783;-78
2022/01/08 02:24:26;;;;;;;18.03;11.80;;;2.10;99.90;;;;;;2613549;54;20424;-79
2022/01/08 02:26:52;;;;;;;16.33;11.43;;;2.20;99.90;;;;;;2613783;54;20414;-79
2022/01/08 02:29:21;;;;;;;19.63;12.50;;;2.20;99.90;;;;;;2614482;39;21236;-78
2022/01/08 02:31:59;;;;;;;17.87;13.47;;;2.20;99.90;;;;;;2615198;54;20430;-79
2022/01/08 02:34:26;;;;;;;15.47;12.57;;;2.20;99.90;;;;;;2614025;46;20531;-77
2022/01/08 02:36:54;;;;;;;13.97;11.53;;;2.20;99.90;;;;;;2613107;47;20431;-79
2022/01/08 02:39:20;;;;;;;21.40;13.47;;;2.20;99.90;;;;;;2614817;39;20780;-79
2022/01/08 02:41:46;;;;;;;18.40;11.50;;;2.00;99.90;;;;;;2614281;54;20455;-79
2022/01/08 02:44:13;;;;;;;18.83;12.60;;;2.30;99.90;;;;;;2615062;54;20507;-79
2022/01/08 02:46:40;;;;;;;17.97;12.33;;;2.20;99.90;;;;;;2612969;54;20411;-78
2022/01/08 02:49:08;;;;;;;15.60;12.10;;;2.30;99.90;;;;;;2614652;54;20414;-78
2022/01/08 02:51:35;;;;;;;18.03;12.47;;;2.10;99.90;;;;;;2615275;39;20826;-78
2022/01/08 02:54:09;;;;;;;20.80;13.70;;;2.00;99.90;;;;;;2613569;54;20419;-79
2022/01/08 02:56:39;;;;;;;22.97;14.57;;;2.00;99.90;;;;;;2613570;31;20851;-77
2022/01/08 02:59:06;;;;;;;17.03;13.40;;;1.90;99.90;;;;;;2613891;54;20381;-80
2022/01/08 03:01:31;;;;;;;16.20;13.83;;;1.90;99.90;;;;;;2613673;54;20400;-78
2022/01/08 03:03:57;;;;;;;19.63;13.77;;;2.20;99.90;;;;;;2614606;54;20987;-79
2022/01/08 03:06:23;;;;;;;19.37;14.20;;;2.10;99.90;;;;;;2613908;47;20419;-77
2022/01/08 03:08:50;;;;;;;22.07;14.67;;;2.10;99.90;;;;;;2614702;31;20619;-77
2022/01/08 03:11:17;;;;;;;22.17;14.67;;;2.20;99.90;;;;;;2614573;54;20394;-79
2022/01/08 03:13:43;;;;;;;19.60;14.33;;;2.00;99.90;;;;;;2615234;54;20520;-79
2022/01/08 03:16:09;;;;;;;17.30;13.43;;;1.90;99.90;;;;;;2613094;39;21158;-79
2022/01/08 03:18:37;;;;;;;15.17;13.33;;;1.90;99.90;;;;;;2614352;46;20519;-79
2022/01/08 03:21:13;;;;;;;18.47;14.50;;;1.90;99.90;;;;;;2613775;54;20466;-78
2022/01/08 03:23:47;;;;;;;15.50;13.40;;;1.90;99.90;;;;;;2612910;54;20996;-79
2022/01/08 03:26:13;;;;;;;23.23;15.23;;;2.00;99.90;;;;;;2614162;54;20388;-78
2022/01/08 03:28:39;;;;;;;19.00;14.73;;;1.90;99.90;;;;;;2616059;54;20411;-77
2022/01/08 03:31:05;;;;;;;18.30;13.30;;;1.80;99.90;;;;;;2614376;54;20408;-79
2022/01/08 03:33:31;;;;;;;18.93;13.30;;;1.70;99.90;;;;;;2614838;54;20507;-79
2022/01/08 03:35:57;;;;;;;16.90;13.90;;;1.70;99.90;;;;;;2614147;47;20411;-78
2022/01/08 03:38:23;;;;;;;18.20;13.90;;;1.90;99.90;;;;;;2615115;47;20431;-77
2022/01/08 03:40:49;;;;;;;21.57;15.33;;;1.90;99.90;;;;;;2614444;54;20169;-79
2022/01/08 03:43:16;;;;;;;26.53;14.77;;;1.90;99.90;;;;;;2614467;54;20147;-78
2022/01/08 03:45:42;;;;;;;20.57;15.23;;;1.60;99.90;;;;;;2614180;47;20503;-78
2022/01/08 03:48:26;;;;;;;17.30;14.60;;;1.90;99.90;;;;;;2615137;54;20494;-78
2022/01/08 03:50:54;;;;;;;22.53;16.53;;;2.10;99.90;;;;;;2613277;47;21140;-79
2022/01/08 03:53:20;;;;;;;21.70;15.40;;;2.00;99.90;;;;;;2615471;54;20424;-80
2022/01/08 03:55:46;;;;;;;19.17;14.47;;;1.90;99.90;;;;;;2614630;47;20960;-77
2022/01/08 03:58:12;;;;;;;26.30;16.00;;;1.80;99.90;;;;;;2614315;54;20418;-79
2022/01/08 04:00:39;;;;;;;27.37;17.80;;;1.70;99.90;;;;;;2614438;47;20238;-78
2022/01/08 04:03:05;;;;;;;22.77;16.00;;;1.70;99.90;;;;;;2614462;54;20983;-77
2022/01/08 04:05:30;;;;;;;21.47;15.97;;;1.70;99.90;;;;;;2614625;47;20431;-78
2022/01/08 04:07:56;;;;;;;29.70;16.57;;;1.70;99.90;;;;;;2614176;54;20407;-78
2022/01/08 04:10:22;;;;;;;13.80;10.50;;;1.70;99.90;;;;;;2615224;39;20863;-78
2022/01/08 04:12:54;;;;;;;31.10;15.37;;;1.80;99.90;;;;;;2613166;54;20422;-80
2022/01/08 04:15:31;;;;;;;12.17;10.73;;;1.90;99.90;;;;;;2614782;47;20455;-78
2022/01/08 04:17:57;;;;;;;25.90;15.30;;;1.90;99.90;;;;;;2615467;54;20427;-79
2022/01/08 04:20:23;;;;;;;22.70;15.97;;;1.90;99.90;;;;;;2614745;54;20437;-79
2022/01/08 04:22:50;;;;;;;13.23;8.67;;;1.80;99.90;;;;;;2614644;54;20158;-78
2022/01/08 04:25:22;;;;;;;22.30;15.80;;;1.90;99.90;;;;;;2613978;54;20411;-79
2022/01/08 04:27:48;;;;;;;21.37;15.10;;;1.90;99.90;;;;;;2614356;51;20439;-79
2022/01/08 04:30:14;;;;;;;21.83;15.67;;;1.90;99.90;;;;;;2614647;54;20482;-79
2022/01/08 04:32:40;;;;;;;19.23;12.57;;;1.80;99.90;;;;;;2614912;39;20964;-77
2022/01/08 04:35:06;;;;;;;24.13;17.57;;;1.80;99.90;;;;;;2613873;54;20415;-78
2022/01/08 04:37:32;;;;;;;19.83;13.90;;;1.80;99.90;;;;;;2615036;39;21263;-78
2022/01/08 04:39:59;;;;;;;23.47;15.47;;;1.80;99.90;;;;;;2615005;47;20424;-80
2022/01/08 04:42:25;;;;;;;21.83;16.10;;;1.80;99.90;;;;;;2614558;54;20409;-78
2022/01/08 04:44:53;;;;;;;14.83;9.80;;;1.80;99.90;;;;;;2615047;31;20910;-79
2022/01/08 04:47:19;;;;;;;24.90;17.67;;;1.80;99.90;;;;;;2614932;54;20408;-78
2022/01/08 04:49:45;;;;;;;19.67;15.80;;;1.80;99.90;;;;;;2612494;47;20475;-77
2022/01/08 04:52:10;;;;;;;25.30;17.87;;;1.70;99.90;;;;;;2615225;47;20432;-77
2022/01/08 04:54:36;;;;;;;27.27;16.50;;;1.70;99.90;;;;;;2615038;47;20418;-76
2022/01/08 04:57:02;;;;;;;21.70;17.03;;;1.70;99.90;;;;;;2612985;54;20311;-77
2022/01/08 04:59:28;;;;;;;30.73;19.03;;;1.70;99.90;;;;;;2614545;54;20400;-78
2022/01/08 05:01:54;;;;;;;25.93;18.03;;;1.60;99.90;;;;;;2615482;54;20422;-79
2022/01/08 05:04:21;;;;;;;32.13;19.33;;;1.60;99.90;;;;;;2614465;47;20702;-78
2022/01/08 05:06:47;;;;;;;23.20;17.40;;;1.60;99.90;;;;;;2614100;54;20321;-76
2022/01/08 05:09:14;;;;;;;28.80;18.20;;;1.50;99.90;;;;;;2614494;54;20407;-79
2022/01/08 05:11:40;;;;;;;26.97;17.60;;;1.50;99.90;;;;;;2615319;54;20176;-78
2022/01/08 05:14:08;;;;;;;27.20;19.57;;;1.60;99.90;;;;;;2614926;54;20395;-80
2022/01/08 05:16:35;;;;;;;23.20;17.70;;;1.50;99.90;;;;;;2614529;39;20879;-79
2022/01/08 05:19:01;;;;;;;29.03;17.33;;;1.50;99.90;;;;;;2614358;47;20457;-78
2022/01/08 05:21:30;;;;;;;28.03;21.00;;;1.50;99.90;;;;;;2615084;54;20459;-78
2022/01/08 05:23:57;;;;;;;27.40;18.83;;;1.50;99.90;;;;;;2615085;54;20394;-80
2022/01/08 05:26:25;;;;;;;29.10;21.63;;;1.50;99.90;;;;;;2613589;54;20467;-78
2022/01/08 05:28:52;;;;;;;28.33;19.40;;;1.40;99.90;;;;;;2614983;54;20388;-78
2022/01/08 05:31:21;;;;;;;20.37;15.90;;;1.40;99.90;;;;;;2614081;54;20407;-79
2022/01/08 05:33:47;;;;;;;26.77;20.03;;;1.20;99.90;;;;;;2614192;54;20425;-78
2022/01/08 05:36:14;;;;;;;32.27;19.53;;;1.30;99.90;;;;;;2614117;54;20428;-79
2022/01/08 05:38:40;;;;;;;27.27;21.13;;;1.30;99.90;;;;;;2613824;47;20411;-78
2022/01/08 05:41:06;;;;;;;32.63;21.33;;;1.30;99.90;;;;;;2614423;47;20978;-79
2022/01/08 05:43:33;;;;;;;27.37;19.67;;;1.30;99.90;;;;;;2615017;54;20419;-79
2022/01/08 05:45:59;;;;;;;30.37;20.30;;;1.20;99.90;;;;;;2613671;54;20506;-80
2022/01/08 05:48:25;;;;;;;26.50;20.77;;;1.00;99.90;;;;;;2615115;54;20413;-79
2022/01/08 05:50:53;;;;;;;33.37;22.77;;;1.10;99.90;;;;;;2614210;47;22149;-79
2022/01/08 05:53:20;;;;;;;30.70;22.23;;;1.10;99.90;;;;;;2614115;54;20408;-80
2022/01/08 05:55:49;;;;;;;30.40;22.80;;;1.20;99.90;;;;;;2613087;47;21003;-78
2022/01/08 05:58:15;;;;;;;36.53;23.70;;;1.20;99.90;;;;;;2614340;54;20403;-79
2022/01/08 06:00:41;;;;;;;41.30;23.77;;;1.20;99.90;;;;;;2612215;54;20399;-78
2022/01/08 06:03:07;;;;;;;31.83;22.27;;;1.10;99.90;;;;;;2612339;47;20480;-79
2022/01/08 06:05:32;;;;;;;41.40;24.80;;;1.10;99.90;;;;;;2613788;54;20499;-78
2022/01/08 06:07:58;;;;;;;36.60;22.97;;;1.10;99.90;;;;;;2614540;54;20270;-78
2022/01/08 06:10:24;;;;;;;31.77;22.80;;;1.10;99.90;;;;;;2614470;46;20185;-79
2022/01/08 06:12:53;;;;;;;33.37;24.20;;;1.10;99.90;;;;;;2613947;54;20173;-79
2022/01/08 06:15:19;;;;;;;36.83;22.93;;;1.10;99.90;;;;;;2613875;54;20155;-78
2022/01/08 06:17:46;;;;;;;31.73;22.43;;;0.90;99.90;;;;;;2615341;54;20418;-79
2022/01/08 06:20:12;;;;;;;31.90;22.50;;;1.00;99.90;;;;;;2613286;49;20446;-79
2022/01/08 06:22:38;;;;;;;38.23;23.90;;;1.00;99.90;;;;;;2614199;54;20382;-78
2022/01/08 06:25:04;;;;;;;30.43;21.37;;;1.00;99.90;;;;;;2612867;47;20437;-78
2022/01/08 06:27:30;;;;;;;37.97;22.73;;;0.90;99.90;;;;;;2614329;39;20273;-79
2022/01/08 06:29:56;;;;;;;40.80;23.83;;;1.00;99.90;;;;;;2614177;54;20395;-79
2022/01/08 06:32:22;;;;;;;30.53;22.80;;;1.00;99.90;;;;;;2614167;54;20171;-78
2022/01/08 06:34:47;;;;;;;37.73;24.80;;;0.80;99.90;;;;;;2614647;54;20442;-79
2022/01/08 06:37:13;;;;;;;34.77;23.80;;;0.80;99.90;;;;;;2615237;39;20598;-77
2022/01/08 06:39:39;;;;;;;39.10;21.97;;;0.90;99.90;;;;;;2613952;47;20155;-77
2022/01/08 06:42:05;;;;;;;27.37;20.43;;;0.90;99.90;;;;;;2614886;54;21078;-78
2022/01/08 06:44:31;;;;;;;28.30;20.03;;;0.90;99.90;;;;;;2612985;54;20397;-77
2022/01/08 06:46:57;;;;;;;27.67;19.07;;;0.90;99.90;;;;;;2614969;54;20388;-78
2022/01/08 06:49:23;;;;;;;25.90;17.27;;;1.00;99.90;;;;;;2615089;54;20943;-79
2022/01/08 06:51:50;;;;;;;14.80;12.47;;;0.90;99.90;;;;;;2614264;54;20419;-79
2022/01/08 06:54:16;;;;;;;29.67;18.70;;;0.90;99.90;;;;;;2613439;54;20431;-78
2022/01/08 06:56:42;;;;;;;30.83;20.37;;;0.90;99.90;;;;;;2613639;54;20431;-77
2022/01/08 06:59:08;;;;;;;32.73;23.27;;;1.00;99.90;;;;;;2614294;47;20432;-78
2022/01/08 07:01:34;;;;;;;23.17;18.63;;;1.00;99.90;;;;;;2614106;47;20424;-79
2022/01/08 07:04:01;;;;;;;30.87;25.10;;;1.00;99.90;;;;;;2614008;54;20431;-79
2022/01/08 07:06:27;;;;;;;33.73;22.63;;;1.00;99.90;;;;;;2613813;47;20424;-79
2022/01/08 07:08:54;;;;;;;22.47;15.43;;;1.00;99.90;;;;;;2614671;54;20514;-79
2022/01/08 07:11:20;;;;;;;27.13;17.30;;;1.10;99.90;;;;;;2614029;51;20428;-79
2022/01/08 07:13:46;;;;;;;42.33;25.17;;;1.20;99.90;;;;;;2613860;54;20411;-79
2022/01/08 07:16:12;;;;;;;26.60;18.30;;;1.10;99.90;;;;;;2613621;54;20417;-78
2022/01/08 07:18:38;;;;;;;36.77;22.97;;;1.10;99.90;;;;;;2614583;47;20411;-80
2022/01/08 07:21:04;;;;;;;38.67;26.03;;;1.20;99.90;;;;;;2613640;54;20431;-79
2022/01/08 07:23:29;;;;;;;26.33;18.17;;;1.20;99.90;;;;;;2613624;54;20450;-78
2022/01/08 07:25:55;;;;;;;31.90;23.03;;;1.20;99.90;;;;;;2612717;47;20434;-79
2022/01/08 07:28:21;;;;;;;36.83;25.93;;;1.20;99.90;;;;;;2613003;54;20524;-79
2022/01/08 07:30:47;;;;;;;19.93;15.10;;;1.20;99.90;;;;;;2611721;47;20403;-80
2022/01/08 07:33:13;;;;;;;30.17;20.20;;;1.20;99.90;;;;;;2614553;54;20406;-79
2022/01/08 07:35:40;;;;;;;39.13;23.37;;;1.30;99.90;;;;;;2612940;54;20455;-84
2022/01/08 07:38:06;;;;;;;43.13;23.23;;;1.30;99.90;;;;;;2613476;39;20774;-79
2022/01/08 07:40:32;;;;;;;37.37;24.80;;;1.30;99.90;;;;;;2612507;54;20433;-78
2022/01/08 07:42:59;;;;;;;40.70;25.50;;;1.40;99.90;;;;;;2609947;54;20691;-77
2022/01/08 07:45:26;;;;;;;39.77;24.10;;;1.30;99.90;;;;;;2612365;39;20874;-80
2022/01/08 07:47:52;;;;;;;40.77;25.40;;;1.40;99.90;;;;;;2611534;54;20461;-78
2022/01/08 07:50:18;;;;;;;21.40;14.73;;;1.40;99.90;;;;;;2611297;54;20431;-80
2022/01/08 07:52:44;;;;;;;43.40;26.10;;;1.40;99.90;;;;;;2611266;54;20561;-79
2022/01/08 07:55:11;;;;;;;43.50;23.10;;;1.40;99.90;;;;;;2612128;39;20779;-79
2022/01/08 07:57:37;;;;;;;38.90;26.67;;;1.50;99.90;;;;;;2611993;46;20454;-79
2022/01/08 08:00:05;;;;;;;42.03;24.57;;;1.50;99.90;;;;;;2610550;54;20424;-80
2022/01/08 08:02:40;;;;;;;36.23;24.27;;;1.60;99.90;;;;;;2610759;54;20386;-80
2022/01/08 08:05:07;;;;;;;34.80;24.00;;;1.50;99.90;;;;;;2613184;47;20433;-78
2022/01/08 08:07:37;;;;;;;41.30;25.97;;;1.60;99.90;;;;;;2613153;51;20403;-79
2022/01/08 08:10:05;;;;;;;34.90;21.50;;;1.50;99.90;;;;;;2614532;54;20421;-79
2022/01/08 08:12:31;;;;;;;39.30;24.83;;;1.50;99.90;;;;;;2614396;46;20441;-79
2022/01/08 08:14:57;;;;;;;48.53;23.60;;;1.50;99.90;;;;;;2614295;46;20411;-80
2022/01/08 08:17:23;;;;;;;42.30;22.50;;;1.60;99.90;;;;;;2614062;39;20840;-81
2022/01/08 08:19:49;;;;;;;32.60;23.07;;;1.60;99.90;;;;;;2613063;47;20448;-80
2022/01/08 08:22:15;;;;;;;43.77;26.13;;;1.70;99.90;;;;;;2612425;47;20702;-80
2022/01/08 08:24:41;;;;;;;32.40;20.37;;;1.70;99.90;;;;;;2612219;47;22377;-79
2022/01/08 08:27:07;;;;;;;40.70;24.00;;;1.80;99.90;;;;;;2612994;47;20443;-79
2022/01/08 08:29:33;;;;;;;36.73;20.33;;;1.90;99.90;;;;;;2612468;39;20823;-78
2022/01/08 08:32:00;;;;;;;19.63;12.93;;;1.90;99.90;;;;;;2613814;54;20428;-80
2022/01/08 08:34:26;;;;;;;39.00;24.00;;;1.90;99.90;;;;;;2613205;47;20420;-79
2022/01/08 08:36:52;;;;;;;15.00;12.50;;;1.90;99.90;;;;;;2612531;47;20422;-80
2022/01/08 08:39:18;;;;;;;31.60;21.60;;;2.00;99.90;;;;;;2614431;54;20414;-81
2022/01/08 08:41:44;;;;;;;34.00;23.10;;;2.10;99.90;;;;;;2613913;54;20391;-81
2022/01/08 08:44:10;;;;;;;42.03;23.13;;;2.20;99.90;;;;;;2612658;54;20147;-79
2022/01/08 08:46:37;;;;;;;36.80;23.40;;;2.20;99.90;;;;;;2613390;54;20155;-79
2022/01/08 08:49:03;;;;;;;15.80;11.67;;;2.20;99.90;;;;;;2613239;47;20418;-79
2022/01/08 08:51:29;;;;;;;25.10;15.97;;;2.20;99.90;;;;;;2613822;54;20405;-80
2022/01/08 08:53:58;;;;;;;27.83;16.30;;;2.20;99.90;;;;;;2614761;47;20410;-80
2022/01/08 08:56:24;;;;;;;36.03;21.90;;;2.20;99.90;;;;;;2613729;47;21063;-80
2022/01/08 08:58:50;;;;;;;21.47;14.03;;;2.20;99.90;;;;;;2613038;46;20423;-80
2022/01/08 09:01:16;;;;;;;36.57;20.33;;;2.20;99.90;;;;;;2614713;47;20564;-79
2022/01/08 09:03:42;;;;;;;23.53;17.13;;;2.20;99.90;;;;;;2613340;39;20892;-80
2022/01/08 09:06:08;;;;;;;33.60;22.07;;;2.30;99.90;;;;;;2612498;54;20435;-79
2022/01/08 09:08:33;;;;;;;25.90;19.53;;;2.40;99.90;;;;;;2615042;39;20797;-79
2022/01/08 09:10:59;;;;;;;36.30;16.37;;;2.60;99.90;;;;;;2612946;47;20439;-80
2022/01/08 09:13:28;;;;;;;32.47;21.17;;;2.60;99.90;;;;;;2612632;47;20175;-78
2022/01/08 09:15:54;;;;;;;24.83;16.20;;;2.60;99.90;;;;;;2613482;54;20435;-80
2022/01/08 09:18:21;;;;;;;29.90;19.43;;;2.60;99.90;;;;;;2613305;54;20506;-83
2022/01/08 09:20:48;;;;;;;26.97;15.10;;;2.60;99.90;;;;;;2612712;46;20475;-80
2022/01/08 09:23:14;;;;;;;31.27;16.10;;;2.60;99.90;;;;;;2613079;47;20458;-80
2022/01/08 09:25:40;;;;;;;11.80;8.67;;;2.70;99.90;;;;;;2612620;54;20415;-79
2022/01/08 09:28:06;;;;;;;27.50;15.80;;;2.80;99.90;;;;;;2612861;47;20447;-81
2022/01/08 09:30:32;;;;;;;33.20;19.57;;;2.80;99.90;;;;;;2614169;54;20420;-79
2022/01/08 09:32:58;;;;;;;31.93;20.70;;;2.90;99.90;;;;;;2611991;47;20494;-80
2022/01/08 09:35:26;;;;;;;24.47;16.90;;;2.80;99.90;;;;;;2612826;54;20163;-80
2022/01/08 09:37:53;;;;;;;19.20;12.90;;;2.90;99.90;;;;;;2612521;46;20473;-78
2022/01/08 09:40:22;;;;;;;24.07;16.67;;;2.90;99.90;;;;;;2614522;54;20428;-79
2022/01/08 09:42:49;;;;;;;28.17;17.17;;;2.80;99.90;;;;;;2614212;54;20412;-81
2022/01/08 09:45:14;;;;;;;31.67;15.60;;;3.00;99.90;;;;;;2612375;54;20415;-78
2022/01/08 09:47:41;;;;;;;22.07;13.37;;;2.90;99.90;;;;;;2613680;39;20797;-78
2022/01/08 09:50:08;;;;;;;17.03;10.43;;;3.00;99.90;;;;;;2613416;54;20146;-77
2022/01/08 09:52:35;;;;;;;32.30;19.17;;;3.10;99.90;;;;;;2609251;54;20388;-79
2022/01/08 09:55:02;;;;;;;20.20;13.10;;;3.10;99.90;;;;;;2610597;47;20430;-80
2022/01/08 09:57:27;;;;;;;18.57;12.67;;;3.10;99.90;;;;;;2605527;54;20424;-79
2022/01/08 09:59:53;;;;;;;29.30;16.13;;;3.10;99.90;;;;;;2605995;54;20927;-78
2022/01/08 10:02:21;;;;;;;24.30;15.30;;;3.20;99.90;;;;;;2610823;47;20444;-80
2022/01/08 10:04:47;;;;;;;29.07;15.40;;;3.30;99.90;;;;;;2608100;54;20414;-79
2022/01/08 10:07:22;;;;;;;39.83;17.90;;;3.30;99.90;;;;;;2608485;54;20526;-79
2022/01/08 10:10:10;;;;;;;25.07;15.97;;;3.20;99.90;;;;;;2610615;39;20794;-80
2022/01/08 10:12:45;;;;;;;20.47;10.93;;;3.40;99.90;;;;;;2614578;54;20442;-81
2022/01/08 10:18:00;;;;;;;21.53;14.37;;;3.50;99.90;;;;;;2612557;47;20415;-79
2022/01/08 10:20:39;;;;;;;29.27;16.10;;;3.40;99.90;;;;;;2614247;54;21071;-80
2022/01/08 10:23:23;;;;;;;14.70;10.00;;;3.40;99.90;;;;;;2612630;47;20431;-78
2022/01/08 10:26:08;;;;;;;20.60;10.03;;;3.40;99.90;;;;;;2612795;54;21446;-80
2022/01/08 10:28:41;;;;;;;23.00;14.33;;;3.30;99.90;;;;;;2612516;47;20404;-80
2022/01/08 10:31:14;;;;;;;23.03;13.50;;;3.40;99.90;;;;;;2610672;47;20448;-80
2022/01/08 10:33:43;;;;;;;37.93;17.37;;;3.50;99.90;;;;;;2613138;54;20478;-78
2022/01/08 10:36:11;;;;;;;27.13;16.23;;;3.70;99.90;;;;;;2612658;54;21170;-79
2022/01/08 10:38:37;;;;;;;26.27;14.90;;;3.70;99.90;;;;;;2613135;46;20513;-82
2022/01/08 10:41:03;;;;;;;18.07;12.33;;;3.90;99.90;;;;;;2614241;39;20825;-80
2022/01/08 10:43:32;;;;;;;27.23;13.03;;;3.90;99.90;;;;;;2612215;54;20395;-81
2022/01/08 10:46:31;;;;;;;22.13;14.63;;;4.10;99.90;;;;;;2613072;54;20443;-80
2022/01/08 10:48:58;;;;;;;20.27;12.50;;;4.00;99.90;;;;;;2611201;47;20443;-79
2022/01/08 10:51:26;;;;;;;25.27;13.53;;;4.20;99.90;;;;;;2612531;54;21047;-80
2022/01/08 10:53:59;;;;;;;22.97;12.97;;;4.00;99.90;;;;;;2609440;54;20412;-79
2022/01/08 10:56:41;;;;;;;21.37;12.67;;;4.20;99.90;;;;;;2611620;47;20432;-79
2022/01/08 10:59:22;;;;;;;27.10;12.60;;;4.40;99.90;;;;;;2611832;54;20410;-79
2022/01/08 11:01:56;;;;;;;19.83;14.20;;;4.10;99.90;;;;;;2612577;54;20431;-79
2022/01/08 11:04:51;;;;;;;21.43;13.27;;;4.10;99.90;;;;;;2612392;47;20411;-77
2022/01/08 11:07:23;;;;;;;16.60;10.40;;;4.00;99.90;;;;;;2611595;47;20395;-83
2022/01/08 11:10:06;;;;;;;17.90;10.63;;;4.10;99.90;;;;;;2612716;47;20432;-82
2022/01/08 11:12:40;;;;;;;8.93;6.73;;;4.10;99.90;;;;;;2612819;47;20452;-81
2022/01/08 11:18:01;;;;;;;19.00;10.10;;;4.20;99.90;;;;;;2611972;47;21530;-81
2022/01/08 11:20:30;;;;;;;19.00;11.73;;;4.40;99.90;;;;;;2612598;54;20456;-81
2022/01/08 11:23:01;;;;;;;19.17;11.47;;;4.40;99.90;;;;;;2612490;54;20386;-82
2022/01/08 11:25:33;;;;;;;15.00;10.03;;;4.50;99.90;;;;;;2612276;54;20419;-79
2022/01/08 11:28:17;;;;;;;22.70;14.37;;;4.50;99.90;;;;;;2611783;47;20427;-79
2022/01/08 11:30:55;;;;;;;15.03;11.03;;;4.70;99.90;;;;;;2610848;47;20419;-79
2022/01/08 11:33:28;;;;;;;18.53;10.67;;;4.90;99.90;;;;;;2612396;54;20431;-79
2022/01/08 11:35:56;;;;;;;13.10;8.57;;;5.00;99.90;;;;;;2612730;54;20421;-80
2022/01/08 11:38:25;;;;;;;10.50;7.47;;;4.90;99.90;;;;;;2612473;54;20398;-82
2022/01/08 11:40:54;;;;;;;22.07;11.37;;;4.70;99.90;;;;;;2613173;54;20632;-80
2022/01/08 11:43:25;;;;;;;21.27;9.57;;;4.90;99.90;;;;;;2612597;47;20542;-80
2022/01/08 11:46:01;;;;;;;15.27;9.90;;;4.80;99.90;;;;;;2611752;54;20510;-80
2022/01/08 11:48:33;;;;;;;11.80;6.87;;;4.90;99.90;;;;;;2612729;54;20409;-81
2022/01/08 11:51:01;;;;;;;17.40;10.13;;;5.00;99.90;;;;;;2612861;54;20399;-82
2022/01/08 11:53:48;;;;;;;11.67;7.90;;;5.00;99.90;;;;;;2612781;47;21234;-80
2022/01/08 11:56:31;;;;;;;15.77;9.80;;;5.30;99.90;;;;;;2613664;46;20971;-81
2022/01/08 11:59:15;;;;;;;10.00;8.10;;;5.50;99.90;;;;;;2611955;39;20801;-81
2022/01/08 12:02:03;;;;;;;7.63;4.57;;;5.70;99.90;;;;;;2612943;54;20386;-80
2022/01/08 12:04:33;;;;;;;12.40;7.70;;;5.40;99.90;;;;;;2612678;54;20975;-82
2022/01/08 12:07:37;;;;;;;12.03;6.50;;;5.50;99.90;;;;;;2610208;54;20415;-78
2022/01/08 12:10:13;;;;;;;5.40;4.50;;;5.50;99.90;;;;;;2613701;31;21057;-77
2022/01/08 12:12:47;;;;;;;5.70;4.37;;;5.20;99.90;;;;;;2612119;54;20510;-78
2022/01/08 12:15:15;;;;;;;6.57;3.60;;;5.10;99.90;;;;;;2611720;47;20477;-79
2022/01/08 12:17:55;;;;;;;4.93;4.43;;;5.10;99.90;;;;;;2613179;47;20435;-76
2022/01/08 12:20:42;;;;;;;5.50;4.30;;;5.40;99.90;;;;;;2611864;54;20447;-77
2022/01/08 12:23:30;;;;;;;8.37;5.60;;;5.40;99.90;;;;;;2611865;47;20411;-78
2022/01/08 12:25:59;;;;;;;7.60;5.33;;;5.60;99.90;;;;;;2611170;47;20419;-78
2022/01/08 12:28:47;;;;;;;6.97;3.80;;;5.40;99.90;;;;;;2612250;47;20439;-79
2022/01/08 12:31:36;;;;;;;6.13;4.67;;;5.60;99.90;;;;;;2611846;47;20480;-78
2022/01/08 12:34:18;;;;;;;5.80;3.83;;;5.50;99.90;;;;;;2611574;54;20392;-77
2022/01/08 12:36:54;;;;;;;6.70;4.80;;;5.10;99.90;;;;;;2610348;54;20487;-76
2022/01/08 12:39:47;;;;;;;6.17;4.80;;;5.60;99.90;;;;;;2612729;39;20492;-77
2022/01/08 12:42:22;;;;;;;9.20;4.70;;;5.60;99.90;;;;;;2611272;54;20442;-77
2022/01/08 12:45:29;;;;;;;6.93;4.67;;;5.70;99.90;;;;;;2612231;54;20415;-79
2022/01/08 12:48:09;;;;;;;6.90;4.60;;;5.60;99.90;;;;;;2612252;54;20431;-79
2022/01/08 12:50:46;;;;;;;6.67;5.40;;;5.50;99.90;;;;;;2612609;47;20432;-77
2022/01/08 12:53:17;;;;;;;7.60;6.20;;;5.50;99.90;;;;;;2614171;54;20388;-79
2022/01/08 12:56:05;;;;;;;9.03;5.70;;;5.80;99.90;;;;;;2610427;54;20407;-78
2022/01/08 12:58:34;;;;;;;10.43;5.13;;;6.20;99.90;;;;;;2611887;47;20427;-78
2022/01/08 13:01:12;;;;;;;10.27;7.33;;;6.20;99.90;;;;;;2611738;54;21075;-78
2022/01/08 13:03:49;;;;;;;3.60;2.67;;;6.10;99.90;;;;;;2612742;54;20485;-78
2022/01/08 13:06:15;;;;;;;8.70;6.10;;;5.80;99.90;;;;;;2617984;39;20851;-79
2022/01/08 13:08:46;;;;;;;4.97;4.50;;;5.40;99.90;;;;;;2613464;54;20415;-78
2022/01/08 13:11:15;;;;;;;11.93;5.10;;;5.40;99.90;;;;;;2610198;39;20856;-78
2022/01/08 13:13:53;;;;;;;4.27;3.60;;;5.30;99.90;;;;;;2612940;54;20447;-77